sensor_id;sensor_type;location;lat;lon;timestamp;pressure;altitude;pressure_sealevel;temperature
18782;BMP180;9519;51.890;8.970;2023-02-28T00:03:20;99416.00;;;-0.20
18782;BMP180;9519;51.890;8.970;2023-02-28T00:08:22;99441.00;;;-0.20
18782;BMP180;9519;51.890;8.970;2023-02-28T00:13:25;99419.00;;;-0.20
18782;BMP180;9519;51.890;8.970;2023-02-28T00:18:27;99452.00;;;-0.10
18782;BMP180;9519;51.890;8.970;2023-02-28T00:23:30;99444.00;;;-0.10
18782;BMP180;9519;51.890;8.970;2023-02-28T00:28:33;99440.00;;;-0.10
18782;BMP180;9519;51.890;8.970;2023-02-28T00:33:36;99793.00;;;-0.10
18782;BMP180;9519;51.890;8.970;2023-02-28T00:38:39;99611.00;;;-0.10
18782;BMP180;9519;51.890;8.970;2023-02-28T00:43:43;99416.00;;;-0.10
18782;BMP180;9519;51.890;8.970;2023-02-28T00:48:45;99781.00;;;-0.10
18782;BMP180;9519;51.890;8.970;2023-02-28T00:53:47;99578.00;;;-0.10
18782;BMP180;9519;51.890;8.970;2023-02-28T00:58:50;99575.00;;;-0.20
18782;BMP180;9519;51.890;8.970;2023-02-28T01:03:53;99885.00;;;-0.30
18782;BMP180;9519;51.890;8.970;2023-02-28T01:08:55;99528.00;;;-0.40
18782;BMP180;9519;51.890;8.970;2023-02-28T01:13:59;99660.00;;;-0.50
18782;BMP180;9519;51.890;8.970;2023-02-28T01:19:01;99871.00;;;-0.50
18782;BMP180;9519;51.890;8.970;2023-02-28T01:24:04;99437.00;;;-0.60
18782;BMP180;9519;51.890;8.970;2023-02-28T01:29:09;99244.00;;;-0.70
18782;BMP180;9519;51.890;8.970;2023-02-28T01:34:11;99705.00;;;-0.80
18782;BMP180;9519;51.890;8.970;2023-02-28T01:39:13;99718.00;;;-0.90
18782;BMP180;9519;51.890;8.970;2023-02-28T01:45:03;99616.00;;;-1.00
18782;BMP180;9519;51.890;8.970;2023-02-28T01:50:12;99278.00;;;-1.10
18782;BMP180;9519;51.890;8.970;2023-02-28T01:55:20;99362.00;;;-1.10
18782;BMP180;9519;51.890;8.970;2023-02-28T02:00:29;99331.00;;;-1.20
18782;BMP180;9519;51.890;8.970;2023-02-28T02:05:32;99581.00;;;-1.30
18782;BMP180;9519;51.890;8.970;2023-02-28T02:10:40;99198.00;;;-1.40
18782;BMP180;9519;51.890;8.970;2023-02-28T02:15:54;99186.00;;;-1.40
18782;BMP180;9519;51.890;8.970;2023-02-28T02:21:44;99099.00;;;-1.50
18782;BMP180;9519;51.890;8.970;2023-02-28T02:27:17;99067.00;;;-1.60
18782;BMP180;9519;51.890;8.970;2023-02-28T02:32:50;98939.00;;;-1.70
18782;BMP180;9519;51.890;8.970;2023-02-28T02:38:07;98780.00;;;-1.80
18782;BMP180;9519;51.890;8.970;2023-02-28T02:43:17;98926.00;;;-1.90
18782;BMP180;9519;51.890;8.970;2023-02-28T02:48:29;98834.00;;;-1.90
18782;BMP180;9519;51.890;8.970;2023-02-28T02:53:38;98829.00;;;-2.00
18782;BMP180;9519;51.890;8.970;2023-02-28T02:58:44;98742.00;;;-2.10
18782;BMP180;9519;51.890;8.970;2023-02-28T03:03:49;99343.00;;;-2.20
18782;BMP180;9519;51.890;8.970;2023-02-28T03:08:53;98841.00;;;-2.20
18782;BMP180;9519;51.890;8.970;2023-02-28T03:19:53;98931.00;;;-2.30
18782;BMP180;9519;51.890;8.970;2023-02-28T03:25:06;98853.00;;;-2.30
18782;BMP180;9519;51.890;8.970;2023-02-28T03:30:15;98871.00;;;-2.30
18782;BMP180;9519;51.890;8.970;2023-02-28T03:35:23;98827.00;;;-2.40
18782;BMP180;9519;51.890;8.970;2023-02-28T03:40:33;98929.00;;;-2.50
18782;BMP180;9519;51.890;8.970;2023-02-28T03:45:40;98862.00;;;-2.60
18782;BMP180;9519;51.890;8.970;2023-02-28T03:50:48;98835.00;;;-2.60
18782;BMP180;9519;51.890;8.970;2023-02-28T03:55:56;98796.00;;;-2.70
18782;BMP180;9519;51.890;8.970;2023-02-28T04:01:06;98528.00;;;-2.70
18782;BMP180;9519;51.890;8.970;2023-02-28T04:06:17;98513.00;;;-2.80
18782;BMP180;9519;51.890;8.970;2023-02-28T04:11:27;98584.00;;;-2.80
18782;BMP180;9519;51.890;8.970;2023-02-28T04:16:33;98635.00;;;-2.90
18782;BMP180;9519;51.890;8.970;2023-02-28T04:21:37;98716.00;;;-2.90
18782;BMP180;9519;51.890;8.970;2023-02-28T04:26:44;98609.00;;;-2.90
18782;BMP180;9519;51.890;8.970;2023-02-28T04:31:46;99022.00;;;-3.00
18782;BMP180;9519;51.890;8.970;2023-02-28T04:36:49;99126.00;;;-3.00
18782;BMP180;9519;51.890;8.970;2023-02-28T04:41:52;98500.00;;;-3.00
18782;BMP180;9519;51.890;8.970;2023-02-28T04:46:55;99041.00;;;-3.00
18782;BMP180;9519;51.890;8.970;2023-02-28T04:51:57;98986.00;;;-3.00
18782;BMP180;9519;51.890;8.970;2023-02-28T04:57:00;98391.00;;;-3.00
18782;BMP180;9519;51.890;8.970;2023-02-28T05:02:03;99077.00;;;-3.00
18782;BMP180;9519;51.890;8.970;2023-02-28T05:07:07;99031.00;;;-3.10
18782;BMP180;9519;51.890;8.970;2023-02-28T05:12:11;98351.00;;;-3.10
18782;BMP180;9519;51.890;8.970;2023-02-28T05:17:13;99003.00;;;-3.10
18782;BMP180;9519;51.890;8.970;2023-02-28T05:22:16;99011.00;;;-3.10
18782;BMP180;9519;51.890;8.970;2023-02-28T05:27:19;98283.00;;;-3.10
18782;BMP180;9519;51.890;8.970;2023-02-28T05:32:22;98979.00;;;-3.10
18782;BMP180;9519;51.890;8.970;2023-02-28T05:37:24;99000.00;;;-3.20
18782;BMP180;9519;51.890;8.970;2023-02-28T05:42:28;98423.00;;;-3.20
18782;BMP180;9519;51.890;8.970;2023-02-28T05:47:30;98836.00;;;-3.20
18782;BMP180;9519;51.890;8.970;2023-02-28T05:52:32;98975.00;;;-3.20
18782;BMP180;9519;51.890;8.970;2023-02-28T05:57:36;98220.00;;;-3.30
18782;BMP180;9519;51.890;8.970;2023-02-28T06:02:39;98240.00;;;-3.40
18782;BMP180;9519;51.890;8.970;2023-02-28T06:07:42;98873.00;;;-3.40
18782;BMP180;9519;51.890;8.970;2023-02-28T06:12:46;98252.00;;;-3.50
18782;BMP180;9519;51.890;8.970;2023-02-28T06:17:48;98797.00;;;-3.50
18782;BMP180;9519;51.890;8.970;2023-02-28T06:22:50;98842.00;;;-3.50
18782;BMP180;9519;51.890;8.970;2023-02-28T06:27:56;97803.00;;;-3.60
18782;BMP180;9519;51.890;8.970;2023-02-28T06:32:59;98849.00;;;-3.60
18782;BMP180;9519;51.890;8.970;2023-02-28T06:38:01;98765.00;;;-3.60
18782;BMP180;9519;51.890;8.970;2023-02-28T06:43:06;98046.00;;;-3.60
18782;BMP180;9519;51.890;8.970;2023-02-28T06:48:08;98808.00;;;-3.60
18782;BMP180;9519;51.890;8.970;2023-02-28T06:53:11;98931.00;;;-3.50
18782;BMP180;9519;51.890;8.970;2023-02-28T06:58:14;98369.00;;;-3.40
18782;BMP180;9519;51.890;8.970;2023-02-28T07:03:20;98405.00;;;-3.30
18782;BMP180;9519;51.890;8.970;2023-02-28T07:08:22;99057.00;;;-3.10
18782;BMP180;9519;51.890;8.970;2023-02-28T07:13:26;98425.00;;;-2.90
18782;BMP180;9519;51.890;8.970;2023-02-28T07:18:28;99170.00;;;-2.70
18782;BMP180;9519;51.890;8.970;2023-02-28T07:23:31;99248.00;;;-2.60
18782;BMP180;9519;51.890;8.970;2023-02-28T07:28:34;98775.00;;;-2.40
18782;BMP180;9519;51.890;8.970;2023-02-28T07:33:37;99141.00;;;-2.30
18782;BMP180;9519;51.890;8.970;2023-02-28T07:38:39;99364.00;;;-2.20
18782;BMP180;9519;51.890;8.970;2023-02-28T07:43:43;98915.00;;;-2.10
18782;BMP180;9519;51.890;8.970;2023-02-28T07:48:45;98952.00;;;-2.00
18782;BMP180;9519;51.890;8.970;2023-02-28T07:53:48;99394.00;;;-1.90
18782;BMP180;9519;51.890;8.970;2023-02-28T07:58:51;98872.00;;;-1.90
18782;BMP180;9519;51.890;8.970;2023-02-28T08:03:54;99446.00;;;-1.80
18782;BMP180;9519;51.890;8.970;2023-02-28T08:08:57;98937.00;;;-1.80
18782;BMP180;9519;51.890;8.970;2023-02-28T08:14:01;98978.00;;;-1.70
18782;BMP180;9519;51.890;8.970;2023-02-28T08:19:03;98948.00;;;-1.60
18782;BMP180;9519;51.890;8.970;2023-02-28T08:24:06;99193.00;;;-1.50
18782;BMP180;9519;51.890;8.970;2023-02-28T08:29:09;99011.00;;;-1.30
18782;BMP180;9519;51.890;8.970;2023-02-28T08:34:15;99288.00;;;-1.10
18782;BMP180;9519;51.890;8.970;2023-02-28T08:39:17;99211.00;;;-0.90
18782;BMP180;9519;51.890;8.970;2023-02-28T08:44:22;99294.00;;;-0.70
18782;BMP180;9519;51.890;8.970;2023-02-28T08:49:24;99441.00;;;-0.50
18782;BMP180;9519;51.890;8.970;2023-02-28T08:54:26;99898.00;;;-0.30
18782;BMP180;9519;51.890;8.970;2023-02-28T08:59:32;99774.00;;;-0.10
18782;BMP180;9519;51.890;8.970;2023-02-28T09:04:34;99848.00;;;0.10
18782;BMP180;9519;51.890;8.970;2023-02-28T09:09:36;99888.00;;;0.30
18782;BMP180;9519;51.890;8.970;2023-02-28T09:14:55;99782.00;;;0.40
18782;BMP180;9519;51.890;8.970;2023-02-28T09:19:57;99891.00;;;0.60
18782;BMP180;9519;51.890;8.970;2023-02-28T09:25:00;100165.00;;;0.70
18782;BMP180;9519;51.890;8.970;2023-02-28T09:30:04;100033.00;;;0.80
18782;BMP180;9519;51.890;8.970;2023-02-28T09:35:07;99964.00;;;1.00
18782;BMP180;9519;51.890;8.970;2023-02-28T09:40:15;100029.00;;;1.10
18782;BMP180;9519;51.890;8.970;2023-02-28T09:45:26;99996.00;;;1.20
18782;BMP180;9519;51.890;8.970;2023-02-28T09:50:36;100038.00;;;1.30
18782;BMP180;9519;51.890;8.970;2023-02-28T09:55:45;100021.00;;;1.40
18782;BMP180;9519;51.890;8.970;2023-02-28T10:00:59;100087.00;;;1.40
18782;BMP180;9519;51.890;8.970;2023-02-28T10:06:12;100040.00;;;1.50
18782;BMP180;9519;51.890;8.970;2023-02-28T10:11:17;100152.00;;;1.60
18782;BMP180;9519;51.890;8.970;2023-02-28T10:16:29;100147.00;;;1.60
18782;BMP180;9519;51.890;8.970;2023-02-28T10:21:38;100122.00;;;1.70
18782;BMP180;9519;51.890;8.970;2023-02-28T10:26:45;100132.00;;;2.00
18782;BMP180;9519;51.890;8.970;2023-02-28T10:31:50;100141.00;;;2.20
18782;BMP180;9519;51.890;8.970;2023-02-28T10:36:53;100162.00;;;2.30
18782;BMP180;9519;51.890;8.970;2023-02-28T10:41:56;100147.00;;;2.30
18782;BMP180;9519;51.890;8.970;2023-02-28T10:47:00;100186.00;;;2.40
18782;BMP180;9519;51.890;8.970;2023-02-28T10:52:02;100163.00;;;2.50
18782;BMP180;9519;51.890;8.970;2023-02-28T10:57:20;100137.00;;;2.50
18782;BMP180;9519;51.890;8.970;2023-02-28T11:02:36;100010.00;;;2.50
18782;BMP180;9519;51.890;8.970;2023-02-28T11:07:41;100139.00;;;2.50
18782;BMP180;9519;51.890;8.970;2023-02-28T11:12:45;100192.00;;;2.60
18782;BMP180;9519;51.890;8.970;2023-02-28T11:17:56;100187.00;;;2.60
18782;BMP180;9519;51.890;8.970;2023-02-28T11:23:03;100106.00;;;2.80
18782;BMP180;9519;51.890;8.970;2023-02-28T11:28:24;100146.00;;;2.80
18782;BMP180;9519;51.890;8.970;2023-02-28T11:33:30;100057.00;;;2.80
18782;BMP180;9519;51.890;8.970;2023-02-28T11:38:35;100153.00;;;2.90
18782;BMP180;9519;51.890;8.970;2023-02-28T11:43:57;100157.00;;;2.90
18782;BMP180;9519;51.890;8.970;2023-02-28T11:49:25;100160.00;;;2.90
18782;BMP180;9519;51.890;8.970;2023-02-28T11:55:00;100137.00;;;2.70
18782;BMP180;9519;51.890;8.970;2023-02-28T12:00:19;100073.00;;;2.60
18782;BMP180;9519;51.890;8.970;2023-02-28T12:05:36;100096.00;;;2.70
18782;BMP180;9519;51.890;8.970;2023-02-28T12:11:00;100159.00;;;3.00
18782;BMP180;9519;51.890;8.970;2023-02-28T12:16:53;100143.00;;;3.20
18782;BMP180;9519;51.890;8.970;2023-02-28T12:22:29;100093.00;;;3.10
18782;BMP180;9519;51.890;8.970;2023-02-28T12:27:37;100142.00;;;3.00
18782;BMP180;9519;51.890;8.970;2023-02-28T12:32:44;100160.00;;;2.90
18782;BMP180;9519;51.890;8.970;2023-02-28T12:37:56;100149.00;;;3.10
18782;BMP180;9519;51.890;8.970;2023-02-28T12:43:03;100153.00;;;3.20
18782;BMP180;9519;51.890;8.970;2023-02-28T12:48:13;100159.00;;;3.30
18782;BMP180;9519;51.890;8.970;2023-02-28T12:53:27;100161.00;;;3.50
18782;BMP180;9519;51.890;8.970;2023-02-28T12:58:37;100230.00;;;3.70
18782;BMP180;9519;51.890;8.970;2023-02-28T13:04:12;100234.00;;;3.90
18782;BMP180;9519;51.890;8.970;2023-02-28T13:09:18;100199.00;;;3.90
18782;BMP180;9519;51.890;8.970;2023-02-28T13:14:29;100214.00;;;3.90
18782;BMP180;9519;51.890;8.970;2023-02-28T13:19:37;100228.00;;;4.00
18782;BMP180;9519;51.890;8.970;2023-02-28T13:24:48;100228.00;;;4.20
18782;BMP180;9519;51.890;8.970;2023-02-28T13:29:53;100198.00;;;4.30
18782;BMP180;9519;51.890;8.970;2023-02-28T13:35:35;100195.00;;;4.40
18782;BMP180;9519;51.890;8.970;2023-02-28T13:40:38;100200.00;;;4.30
18782;BMP180;9519;51.890;8.970;2023-02-28T13:46:06;100143.00;;;4.20
18782;BMP180;9519;51.890;8.970;2023-02-28T13:51:40;100183.00;;;4.20
18782;BMP180;9519;51.890;8.970;2023-02-28T13:56:54;100229.00;;;4.30
18782;BMP180;9519;51.890;8.970;2023-02-28T14:02:40;100294.00;;;4.50
18782;BMP180;9519;51.890;8.970;2023-02-28T14:07:50;100240.00;;;4.60
18782;BMP180;9519;51.890;8.970;2023-02-28T14:13:11;100257.00;;;4.80
18782;BMP180;9519;51.890;8.970;2023-02-28T14:18:23;100235.00;;;5.10
18782;BMP180;9519;51.890;8.970;2023-02-28T14:23:43;100241.00;;;5.20
18782;BMP180;9519;51.890;8.970;2023-02-28T14:29:07;100252.00;;;5.30
18782;BMP180;9519;51.890;8.970;2023-02-28T14:34:39;100263.00;;;5.50
18782;BMP180;9519;51.890;8.970;2023-02-28T14:39:45;100292.00;;;5.70
18782;BMP180;9519;51.890;8.970;2023-02-28T14:44:55;100279.00;;;5.90
18782;BMP180;9519;51.890;8.970;2023-02-28T14:49:59;100284.00;;;6.00
18782;BMP180;9519;51.890;8.970;2023-02-28T14:55:09;100304.00;;;6.00
18782;BMP180;9519;51.890;8.970;2023-02-28T15:00:22;100304.00;;;6.10
18782;BMP180;9519;51.890;8.970;2023-02-28T15:05:28;100315.00;;;6.20
18782;BMP180;9519;51.890;8.970;2023-02-28T15:10:32;100325.00;;;6.30
18782;BMP180;9519;51.890;8.970;2023-02-28T15:15:51;100286.00;;;6.50
18782;BMP180;9519;51.890;8.970;2023-02-28T15:20:56;100289.00;;;6.50
18782;BMP180;9519;51.890;8.970;2023-02-28T15:26:00;100286.00;;;6.60
18782;BMP180;9519;51.890;8.970;2023-02-28T15:31:22;100255.00;;;6.50
18782;BMP180;9519;51.890;8.970;2023-02-28T15:36:29;100237.00;;;6.40
18782;BMP180;9519;51.890;8.970;2023-02-28T15:41:37;100227.00;;;6.30
18782;BMP180;9519;51.890;8.970;2023-02-28T15:46:53;100209.00;;;6.10
18782;BMP180;9519;51.890;8.970;2023-02-28T15:51:59;100164.00;;;5.80
18782;BMP180;9519;51.890;8.970;2023-02-28T15:57:06;100181.00;;;5.40
18782;BMP180;9519;51.890;8.970;2023-02-28T16:02:17;100171.00;;;5.10
18782;BMP180;9519;51.890;8.970;2023-02-28T16:07:20;100104.00;;;4.80
18782;BMP180;9519;51.890;8.970;2023-02-28T16:12:27;100172.00;;;4.50
18782;BMP180;9519;51.890;8.970;2023-02-28T16:17:35;100162.00;;;4.30
18782;BMP180;9519;51.890;8.970;2023-02-28T16:22:39;100107.00;;;4.10
18782;BMP180;9519;51.890;8.970;2023-02-28T16:27:45;100181.00;;;3.90
18782;BMP180;9519;51.890;8.970;2023-02-28T16:32:54;100140.00;;;3.70
18782;BMP180;9519;51.890;8.970;2023-02-28T16:37:56;100074.00;;;3.50
18782;BMP180;9519;51.890;8.970;2023-02-28T16:43:00;100078.00;;;3.40
18782;BMP180;9519;51.890;8.970;2023-02-28T16:48:11;100002.00;;;3.30
18782;BMP180;9519;51.890;8.970;2023-02-28T16:53:14;99958.00;;;3.10
18782;BMP180;9519;51.890;8.970;2023-02-28T16:58:16;100044.00;;;3.00
18782;BMP180;9519;51.890;8.970;2023-02-28T17:03:24;99995.00;;;2.90
18782;BMP180;9519;51.890;8.970;2023-02-28T17:08:26;100020.00;;;2.80
18782;BMP180;9519;51.890;8.970;2023-02-28T17:13:30;99993.00;;;2.70
18782;BMP180;9519;51.890;8.970;2023-02-28T17:18:34;99945.00;;;2.60
18782;BMP180;9519;51.890;8.970;2023-02-28T17:23:37;99987.00;;;2.50
18782;BMP180;9519;51.890;8.970;2023-02-28T17:28:39;99923.00;;;2.40
18782;BMP180;9519;51.890;8.970;2023-02-28T17:33:43;99959.00;;;2.20
18782;BMP180;9519;51.890;8.970;2023-02-28T17:38:45;99929.00;;;2.10
18782;BMP180;9519;51.890;8.970;2023-02-28T17:43:47;99931.00;;;2.00
18782;BMP180;9519;51.890;8.970;2023-02-28T17:48:52;99961.00;;;1.90
18782;BMP180;9519;51.890;8.970;2023-02-28T17:53:54;99922.00;;;1.80
18782;BMP180;9519;51.890;8.970;2023-02-28T17:58:57;99780.00;;;1.70
18782;BMP180;9519;51.890;8.970;2023-02-28T18:04:00;99749.00;;;1.60
18782;BMP180;9519;51.890;8.970;2023-02-28T18:09:02;99780.00;;;1.60
18782;BMP180;9519;51.890;8.970;2023-02-28T18:14:04;99798.00;;;1.50
18782;BMP180;9519;51.890;8.970;2023-02-28T18:19:08;99691.00;;;1.40
18782;BMP180;9519;51.890;8.970;2023-02-28T18:24:16;99842.00;;;1.30
18782;BMP180;9519;51.890;8.970;2023-02-28T18:29:21;99716.00;;;1.30
18782;BMP180;9519;51.890;8.970;2023-02-28T18:34:25;99746.00;;;1.20
18782;BMP180;9519;51.890;8.970;2023-02-28T18:39:29;99207.00;;;1.20
18782;BMP180;9519;51.890;8.970;2023-02-28T18:44:32;99599.00;;;1.10
18782;BMP180;9519;51.890;8.970;2023-02-28T18:49:35;99611.00;;;1.10
18782;BMP180;9519;51.890;8.970;2023-02-28T18:54:38;99994.00;;;0.90
18782;BMP180;9519;51.890;8.970;2023-02-28T18:59:40;99976.00;;;0.90
18782;BMP180;9519;51.890;8.970;2023-02-28T19:04:44;99718.00;;;0.80
18782;BMP180;9519;51.890;8.970;2023-02-28T19:09:46;99685.00;;;0.80
18782;BMP180;9519;51.890;8.970;2023-02-28T19:14:48;99996.00;;;0.70
18782;BMP180;9519;51.890;8.970;2023-02-28T19:19:51;99782.00;;;0.70
18782;BMP180;9519;51.890;8.970;2023-02-28T19:24:54;100061.00;;;0.70
18782;BMP180;9519;51.890;8.970;2023-02-28T19:29:56;99786.00;;;0.70
18782;BMP180;9519;51.890;8.970;2023-02-28T19:35:00;99777.00;;;0.60
18782;BMP180;9519;51.890;8.970;2023-02-28T19:40:05;99837.00;;;0.50
18782;BMP180;9519;51.890;8.970;2023-02-28T19:45:10;99877.00;;;0.40
18782;BMP180;9519;51.890;8.970;2023-02-28T19:50:18;99688.00;;;0.30
18782;BMP180;9519;51.890;8.970;2023-02-28T19:55:20;99728.00;;;0.20
18782;BMP180;9519;51.890;8.970;2023-02-28T20:00:22;99714.00;;;0.20
18782;BMP180;9519;51.890;8.970;2023-02-28T20:05:26;99677.00;;;0.10
18782;BMP180;9519;51.890;8.970;2023-02-28T20:10:28;99663.00;;;0.00
18782;BMP180;9519;51.890;8.970;2023-02-28T20:15:30;99556.00;;;0.00
18782;BMP180;9519;51.890;8.970;2023-02-28T20:20:34;99676.00;;;-0.20
18782;BMP180;9519;51.890;8.970;2023-02-28T20:25:38;99425.00;;;-0.20
18782;BMP180;9519;51.890;8.970;2023-02-28T20:30:41;99530.00;;;-0.30
18782;BMP180;9519;51.890;8.970;2023-02-28T20:35:44;99522.00;;;-0.40
18782;BMP180;9519;51.890;8.970;2023-02-28T20:40:46;99387.00;;;-0.40
18782;BMP180;9519;51.890;8.970;2023-02-28T20:45:52;99672.00;;;-0.50
18782;BMP180;9519;51.890;8.970;2023-02-28T20:50:58;99650.00;;;-0.60
18782;BMP180;9519;51.890;8.970;2023-02-28T20:56:04;99494.00;;;-0.60
18782;BMP180;9519;51.890;8.970;2023-02-28T21:01:09;99533.00;;;-0.70
18782;BMP180;9519;51.890;8.970;2023-02-28T21:06:20;99341.00;;;-0.70
18782;BMP180;9519;51.890;8.970;2023-02-28T21:11:25;99425.00;;;-0.80
18782;BMP180;9519;51.890;8.970;2023-02-28T21:16:27;99232.00;;;-0.90
18782;BMP180;9519;51.890;8.970;2023-02-28T21:21:35;99347.00;;;-0.90
18782;BMP180;9519;51.890;8.970;2023-02-28T21:26:39;99181.00;;;-1.00
18782;BMP180;9519;51.890;8.970;2023-02-28T21:31:41;99237.00;;;-1.00
18782;BMP180;9519;51.890;8.970;2023-02-28T21:36:45;99139.00;;;-1.10
18782;BMP180;9519;51.890;8.970;2023-02-28T21:41:48;99327.00;;;-1.10
18782;BMP180;9519;51.890;8.970;2023-02-28T21:46:51;99206.00;;;-1.20
18782;BMP180;9519;51.890;8.970;2023-02-28T21:51:57;99343.00;;;-1.30
18782;BMP180;9519;51.890;8.970;2023-02-28T21:56:59;99141.00;;;-1.30
18782;BMP180;9519;51.890;8.970;2023-02-28T22:02:01;99168.00;;;-1.30
18782;BMP180;9519;51.890;8.970;2023-02-28T22:07:06;99163.00;;;-1.40
18782;BMP180;9519;51.890;8.970;2023-02-28T22:12:08;99110.00;;;-1.50
18782;BMP180;9519;51.890;8.970;2023-02-28T22:17:10;99129.00;;;-1.50
18782;BMP180;9519;51.890;8.970;2023-02-28T22:22:13;99074.00;;;-1.50
18782;BMP180;9519;51.890;8.970;2023-02-28T22:27:16;99573.00;;;-1.50
18782;BMP180;9519;51.890;8.970;2023-02-28T22:32:18;99127.00;;;-1.60
18782;BMP180;9519;51.890;8.970;2023-02-28T22:37:21;99131.00;;;-1.60
18782;BMP180;9519;51.890;8.970;2023-02-28T22:42:23;99583.00;;;-1.60
18782;BMP180;9519;51.890;8.970;2023-02-28T22:47:26;99156.00;;;-1.60
18782;BMP180;9519;51.890;8.970;2023-02-28T22:52:29;99148.00;;;-1.60
18782;BMP180;9519;51.890;8.970;2023-02-28T22:57:31;99171.00;;;-1.60
18782;BMP180;9519;51.890;8.970;2023-02-28T23:02:34;99132.00;;;-1.70
18782;BMP180;9519;51.890;8.970;2023-02-28T23:07:39;99234.00;;;-1.70
18782;BMP180;9519;51.890;8.970;2023-02-28T23:12:42;99540.00;;;-1.80
18782;BMP180;9519;51.890;8.970;2023-02-28T23:17:51;99543.00;;;-1.90
18782;BMP180;9519;51.890;8.970;2023-02-28T23:22:54;98993.00;;;-2.00
18782;BMP180;9519;51.890;8.970;2023-02-28T23:27:56;98987.00;;;-2.00
18782;BMP180;9519;51.890;8.970;2023-02-28T23:32:59;99457.00;;;-2.10
18782;BMP180;9519;51.890;8.970;2023-02-28T23:38:02;98972.00;;;-2.10
18782;BMP180;9519;51.890;8.970;2023-02-28T23:43:05;99449.00;;;-2.20
18782;BMP180;9519;51.890;8.970;2023-02-28T23:48:07;99393.00;;;-2.30
18782;BMP180;9519;51.890;8.970;2023-02-28T23:53:10;98908.00;;;-2.40
18782;BMP180;9519;51.890;8.970;2023-02-28T23:58:13;99409.00;;;-2.40
